createdAt,value
2019-05-07T00:02:22.653Z,63.33
2019-05-07T00:04:52.241Z,63.38
2019-05-07T00:07:22.396Z,63.43
2019-05-07T00:09:52.552Z,63.42
2019-05-07T00:12:23.075Z,63.51
2019-05-07T00:14:58.972Z,63.54
2019-05-07T00:17:22.831Z,63.63
2019-05-07T00:19:52.594Z,63.64
2019-05-07T00:22:22.907Z,63.70
2019-05-07T00:24:52.150Z,63.93
2019-05-07T00:27:22.599Z,64.10
2019-05-07T00:29:52.104Z,64.15
2019-05-07T00:32:22.194Z,64.23
2019-05-07T00:34:54.237Z,64.18
2019-05-07T00:37:25.106Z,64.19
2019-05-07T00:40:13.153Z,64.19
2019-05-07T00:42:59.631Z,64.21
2019-05-07T00:45:29.805Z,64.22
2019-05-07T00:47:58.189Z,64.17
2019-05-07T00:50:28.236Z,64.15
2019-05-07T00:52:56.884Z,64.10
2019-05-07T00:55:25.285Z,64.07
2019-05-07T00:57:53.737Z,64.12
2019-05-07T01:00:22.462Z,64.16
2019-05-07T01:02:52.525Z,64.21
2019-05-07T01:05:23.068Z,64.23
2019-05-07T01:07:52.901Z,64.27
2019-05-07T01:10:22.271Z,64.28
2019-05-07T01:12:52.983Z,64.24
2019-05-07T01:15:31.089Z,64.20
2019-05-07T01:17:52.116Z,64.16
2019-05-07T01:20:22.127Z,64.25
2019-05-07T01:22:54.389Z,64.26
2019-05-07T01:25:22.050Z,64.24
2019-05-07T01:27:50.636Z,64.21
2019-05-07T01:30:19.361Z,64.29
2019-05-07T01:32:58.362Z,64.39
2019-05-07T01:35:28.459Z,64.44
2019-05-07T01:37:56.850Z,64.44
2019-05-07T01:40:25.319Z,64.53
2019-05-07T01:42:53.736Z,64.59
2019-05-07T01:45:24.938Z,64.68
2019-05-07T01:47:53.079Z,64.68
2019-05-07T01:50:22.727Z,64.70
2019-05-07T01:52:52.293Z,64.77
2019-05-07T01:55:22.566Z,64.91
2019-05-07T01:57:52.249Z,65.05
2019-05-07T02:00:22.431Z,65.16
2019-05-07T02:03:02.818Z,65.24
2019-05-07T02:05:48.378Z,65.32
2019-05-07T02:08:35.040Z,65.26
2019-05-07T02:11:12.762Z,65.29
2019-05-07T02:13:41.992Z,65.28
2019-05-07T02:16:12.428Z,65.25
2019-05-07T02:18:42.477Z,65.35
2019-05-07T02:21:12.897Z,65.44
2019-05-07T02:23:42.556Z,65.45
2019-05-07T02:26:13.286Z,65.46
2019-05-07T02:28:42.606Z,65.52
2019-05-07T02:31:14.675Z,65.58
2019-05-07T02:33:43.462Z,65.66
2019-05-07T02:36:14.376Z,65.74
2019-05-07T02:38:46.143Z,65.80
2019-05-07T02:41:23.348Z,65.88
2019-05-07T02:43:53.758Z,65.91
2019-05-07T02:46:31.869Z,65.94
2019-05-07T02:49:03.192Z,66.02
2019-05-07T02:51:36.266Z,65.98
2019-05-07T02:54:06.288Z,65.95
2019-05-07T02:56:34.749Z,66.01
2019-05-07T02:59:04.201Z,66.02
2019-05-07T03:01:33.483Z,66.13
2019-05-07T03:04:03.582Z,66.20
2019-05-07T03:06:55.838Z,66.25
2019-05-07T03:09:24.223Z,66.30
2019-05-07T03:11:53.163Z,66.26
2019-05-07T03:14:23.393Z,66.31
2019-05-07T03:16:53.560Z,66.34
2019-05-07T03:19:24.140Z,66.36
2019-05-07T03:21:55.983Z,66.44
2019-05-07T03:24:26.540Z,66.42
2019-05-07T03:26:54.981Z,66.42
2019-05-07T03:29:25.209Z,66.47
2019-05-07T03:32:10.214Z,66.45
2019-05-07T03:34:45.701Z,66.47
2019-05-07T03:37:13.566Z,66.47
2019-05-07T03:39:43.308Z,66.58
2019-05-07T03:42:13.280Z,66.65
2019-05-07T03:44:46.377Z,66.78
2019-05-07T03:47:35.055Z,66.82
2019-05-07T03:50:05.006Z,66.84
2019-05-07T03:52:33.736Z,66.89
2019-05-07T03:55:03.687Z,66.99
2019-05-07T03:57:33.439Z,67.05
2019-05-07T04:00:04.346Z,67.09
2019-05-07T04:02:33.332Z,67.12
2019-05-07T04:05:04.263Z,67.17
2019-05-07T04:07:33.659Z,67.22
2019-05-07T04:10:04.449Z,67.28
2019-05-07T04:12:34.249Z,67.40
2019-05-07T04:15:03.433Z,67.40
2019-05-07T04:17:33.806Z,67.38
2019-05-07T04:20:04.409Z,67.41
2019-05-07T04:22:34.523Z,67.50
2019-05-07T04:25:17.288Z,67.55
2019-05-07T04:27:47.329Z,67.64
2019-05-07T04:30:15.769Z,67.62
2019-05-07T04:32:45.834Z,67.69
2019-05-07T04:35:18.719Z,67.74
2019-05-07T04:37:47.110Z,67.80
2019-05-07T04:40:15.783Z,67.88
2019-05-07T04:42:44.252Z,67.91
2019-05-07T04:45:13.839Z,67.99
2019-05-07T04:47:47.051Z,68.01
2019-05-07T04:50:32.912Z,68.05
2019-05-07T04:52:44.885Z,68.04
2019-05-07T04:55:14.037Z,68.03
2019-05-07T04:57:43.698Z,68.05
2019-05-07T05:00:13.656Z,68.05
2019-05-07T05:02:59.714Z,68.11
2019-05-07T05:05:28.241Z,68.09
2019-05-07T05:07:56.635Z,68.04
2019-05-07T05:10:25.094Z,68.06
2019-05-07T05:12:53.865Z,68.06
2019-05-07T05:15:22.348Z,68.06
2019-05-07T05:17:53.709Z,68.04
2019-05-07T05:20:22.873Z,68.03
2019-05-07T05:22:58.559Z,68.00
2019-05-07T05:25:28.607Z,68.07
2019-05-07T05:27:56.987Z,68.00
2019-05-07T05:30:29.963Z,68.02
2019-05-07T05:33:01.269Z,67.96
2019-05-07T05:35:28.567Z,67.92
2019-05-07T05:37:57.103Z,67.83
2019-05-07T05:40:25.560Z,67.81
2019-05-07T05:42:58.683Z,67.78
2019-05-07T05:45:37.867Z,67.68
2019-05-07T05:48:08.394Z,67.45
2019-05-07T05:50:44.431Z,67.33
2019-05-07T05:53:32.713Z,67.24
2019-05-07T05:56:02.827Z,67.16
2019-05-07T05:58:32.881Z,66.99
2019-05-07T06:01:05.653Z,66.96
2019-05-07T06:03:35.763Z,66.95
2019-05-07T06:06:24.081Z,66.81
2019-05-07T06:08:57.163Z,66.71
2019-05-07T06:11:32.072Z,66.56
2019-05-07T06:14:02.257Z,66.45
2019-05-07T06:16:36.633Z,66.26
2019-05-07T06:19:17.011Z,66.09
2019-05-07T06:22:03.281Z,65.89
2019-05-07T06:24:39.302Z,65.67
2019-05-07T06:27:07.935Z,65.54
2019-05-07T06:29:36.406Z,65.42
2019-05-07T06:32:09.396Z,65.42
2019-05-07T06:34:37.830Z,65.05
2019-05-07T06:37:06.226Z,64.74
2019-05-07T06:39:36.435Z,64.54
2019-05-07T06:42:22.922Z,64.23
2019-05-07T06:45:02.909Z,63.93
2019-05-07T06:47:31.981Z,63.65
2019-05-07T06:50:02.994Z,63.18
2019-05-07T06:52:31.984Z,62.85
2019-05-07T06:55:03.202Z,62.50
2019-05-07T06:57:33.057Z,62.25
2019-05-07T07:00:22.532Z,62.00
2019-05-07T07:02:55.282Z,61.49
2019-05-07T07:05:34.142Z,61.29
2019-05-07T07:08:04.719Z,61.04
2019-05-07T07:10:34.829Z,60.78
2019-05-07T07:13:03.377Z,60.52
2019-05-07T07:15:32.148Z,60.26
2019-05-07T07:18:03.003Z,60.00
2019-05-07T07:20:32.597Z,59.81
2019-05-07T07:23:02.359Z,59.42
2019-05-07T07:25:32.614Z,58.92
2019-05-07T07:28:02.778Z,58.49
2019-05-07T07:30:33.085Z,58.43
2019-05-07T07:33:03.207Z,58.35
2019-05-07T07:35:32.233Z,58.37
2019-05-07T07:38:02.505Z,58.13
2019-05-07T07:40:32.808Z,57.89
2019-05-07T07:43:03.850Z,57.65
2019-05-07T07:45:32.382Z,57.32
2019-05-07T07:48:02.248Z,57.30
2019-05-07T07:50:33.099Z,57.22
2019-05-07T07:53:02.544Z,56.80
2019-05-07T07:55:33.075Z,56.39
2019-05-07T07:58:06.217Z,55.96
2019-05-07T08:00:38.709Z,55.66
2019-05-07T08:03:08.757Z,55.71
2019-05-07T08:05:37.205Z,55.88
2019-05-07T08:08:05.687Z,55.63
2019-05-07T08:10:34.095Z,55.41
2019-05-07T08:13:05.712Z,55.04
2019-05-07T08:15:34.134Z,54.69
2019-05-07T08:18:02.985Z,54.64
2019-05-07T08:20:32.593Z,54.18
2019-05-07T08:23:02.915Z,54.19
2019-05-07T08:25:49.412Z,54.14
2019-05-07T08:28:19.655Z,53.78
2019-05-07T08:30:50.044Z,54.02
2019-05-07T08:33:22.326Z,53.54
2019-05-07T08:35:52.265Z,52.94
2019-05-07T08:38:21.911Z,52.79
2019-05-07T08:40:52.091Z,52.52
2019-05-07T08:43:21.844Z,52.06
2019-05-07T08:45:52.567Z,51.54
2019-05-07T08:48:25.769Z,51.25
2019-05-07T08:50:54.250Z,50.99
2019-05-07T08:53:22.661Z,50.13
2019-05-07T08:55:52.625Z,49.25
2019-05-07T08:58:22.391Z,48.60
2019-05-07T09:00:52.356Z,48.88
2019-05-07T09:03:25.013Z,48.61
2019-05-07T09:05:52.653Z,48.12
2019-05-07T09:08:21.805Z,48.87
2019-05-07T09:10:52.395Z,48.95
2019-05-07T09:13:22.526Z,48.86
2019-05-07T09:15:52.690Z,48.46
2019-05-07T09:18:22.883Z,47.35
2019-05-07T09:20:52.745Z,46.59
2019-05-07T09:23:22.301Z,46.51
2019-05-07T09:25:52.278Z,46.00
2019-05-07T09:28:22.260Z,46.06
2019-05-07T09:33:37.042Z,46.55
2019-05-07T09:36:07.212Z,46.85
2019-05-07T09:38:35.624Z,46.78
2019-05-07T09:41:04.100Z,46.57
2019-05-07T09:43:32.666Z,46.88
2019-05-07T09:46:02.726Z,47.18
2019-05-07T09:48:33.601Z,46.50
2019-05-07T09:51:02.357Z,46.25
2019-05-07T09:53:32.145Z,45.96
2019-05-07T09:56:02.150Z,45.89
2019-05-07T09:58:36.556Z,46.02
2019-05-07T10:01:02.080Z,45.39
2019-05-07T10:03:32.413Z,44.88
2019-05-07T10:06:02.216Z,44.91
2019-05-07T10:08:32.417Z,44.30
2019-05-07T10:11:02.725Z,44.03
2019-05-07T10:13:33.118Z,44.35
2019-05-07T10:16:03.840Z,43.91
2019-05-07T10:18:32.169Z,43.16
2019-05-07T10:21:02.496Z,43.15
2019-05-07T10:23:31.317Z,43.36
2019-05-07T10:26:01.678Z,43.94
2019-05-07T10:28:32.112Z,43.84
2019-05-07T10:31:00.756Z,43.52
2019-05-07T10:33:29.232Z,43.46
2019-05-07T10:35:58.012Z,43.20
2019-05-07T10:38:26.421Z,43.01
2019-05-07T10:40:54.894Z,43.18
2019-05-07T10:43:23.885Z,43.14
2019-05-07T10:48:51.446Z,42.94
2019-05-07T10:51:21.830Z,43.02
2019-05-07T10:53:51.790Z,43.73
2019-05-07T10:56:22.277Z,43.95
2019-05-07T10:58:52.195Z,43.85
2019-05-07T11:01:22.517Z,44.00
2019-05-07T11:03:51.714Z,44.10
2019-05-07T11:06:22.123Z,43.71
2019-05-07T11:08:51.892Z,43.15
2019-05-07T11:11:20.453Z,43.07
2019-05-07T11:13:48.866Z,43.47
2019-05-07T11:16:18.913Z,43.38
2019-05-07T11:18:51.746Z,42.61
2019-05-07T11:21:32.969Z,42.34
2019-05-07T11:24:03.244Z,42.68
2019-05-07T11:26:32.934Z,42.10
2019-05-07T11:29:02.405Z,42.04
2019-05-07T11:31:33.114Z,40.67
2019-05-07T11:34:02.794Z,38.80
2019-05-07T11:36:31.957Z,37.80
2019-05-07T11:39:01.815Z,37.50
2019-05-07T11:41:32.135Z,37.05
2019-05-07T11:44:02.252Z,37.08
2019-05-07T11:46:32.904Z,37.43
2019-05-07T11:49:06.175Z,37.61
2019-05-07T11:51:36.299Z,38.03
2019-05-07T11:54:09.158Z,38.43
2019-05-07T11:56:38.301Z,38.76
2019-05-07T11:59:06.965Z,38.35
2019-05-07T12:01:46.581Z,38.00
2019-05-07T12:04:07.909Z,37.32
2019-05-07T12:06:36.485Z,36.85
2019-05-07T12:09:07.339Z,36.62
2019-05-07T12:11:35.760Z,35.67
2019-05-07T12:14:04.232Z,35.39
2019-05-07T12:16:32.671Z,35.97
2019-05-07T12:19:02.264Z,36.25
2019-05-07T12:21:30.769Z,36.12
2019-05-07T12:24:01.955Z,36.66
2019-05-07T12:26:30.962Z,37.21
2019-05-07T12:28:59.371Z,37.34
2019-05-07T12:31:33.615Z,36.91
2019-05-07T12:34:11.709Z,36.93
2019-05-07T12:36:39.934Z,37.05
2019-05-07T12:39:09.357Z,37.01
2019-05-07T12:41:37.827Z,37.14
2019-05-07T12:44:07.939Z,37.06
2019-05-07T12:46:36.783Z,36.80
2019-05-07T12:49:05.565Z,36.40
2019-05-07T12:51:37.796Z,36.76
2019-05-07T12:54:22.883Z,37.10
2019-05-07T12:56:53.397Z,37.53
2019-05-07T12:59:22.050Z,37.21
2019-05-07T13:01:52.183Z,36.99
2019-05-07T13:04:22.291Z,36.90
2019-05-07T13:07:04.077Z,37.00
2019-05-07T13:09:32.888Z,36.63
2019-05-07T13:12:03.045Z,36.65
2019-05-07T13:14:31.589Z,36.58
2019-05-07T13:17:00.022Z,35.68
2019-05-07T13:19:28.498Z,35.27
2019-05-07T13:21:56.913Z,35.15
2019-05-07T13:24:25.393Z,34.85
2019-05-07T13:26:53.937Z,34.24
2019-05-07T13:29:22.369Z,34.28
2019-05-07T13:31:54.306Z,34.87
2019-05-07T13:34:22.868Z,34.81
2019-05-07T13:36:54.600Z,35.01
2019-05-07T13:39:32.521Z,34.85
2019-05-07T13:42:12.679Z,34.66
2019-05-07T13:44:45.919Z,34.57
2019-05-07T13:47:28.637Z,34.42
2019-05-07T13:49:58.021Z,34.56
2019-05-07T13:52:26.508Z,34.42
2019-05-07T13:54:55.253Z,34.11
2019-05-07T13:57:23.771Z,34.21
2019-05-07T13:59:53.219Z,34.23
2019-05-07T14:02:23.677Z,34.58
2019-05-07T14:04:52.719Z,34.70
2019-05-07T14:07:21.836Z,33.92
2019-05-07T14:09:52.664Z,34.03
2019-05-07T14:12:22.997Z,34.53
2019-05-07T14:14:53.013Z,34.82
2019-05-07T14:17:22.043Z,35.33
2019-05-07T14:19:53.063Z,35.37
2019-05-07T14:22:22.603Z,34.87
2019-05-07T14:24:52.938Z,34.11
2019-05-07T14:27:23.134Z,34.44
2019-05-07T14:29:52.188Z,35.03
2019-05-07T14:32:25.420Z,35.47
2019-05-07T14:35:07.633Z,35.22
2019-05-07T14:37:37.675Z,34.43
2019-05-07T14:40:07.671Z,34.40
2019-05-07T14:42:38.419Z,33.67
2019-05-07T14:45:07.708Z,33.27
2019-05-07T14:47:36.397Z,32.87
2019-05-07T14:50:06.681Z,32.74
2019-05-07T14:52:36.301Z,32.82
2019-05-07T14:55:06.239Z,33.06
2019-05-07T14:57:35.920Z,32.85
2019-05-07T15:00:07.404Z,32.80
2019-05-07T15:02:35.979Z,32.54
2019-05-07T15:05:07.046Z,32.91
2019-05-07T15:07:37.034Z,32.96
2019-05-07T15:10:09.132Z,33.12
2019-05-07T15:12:37.713Z,33.04
2019-05-07T15:15:09.523Z,32.85
2019-05-07T15:17:41.832Z,32.87
2019-05-07T15:20:10.259Z,33.02
2019-05-07T15:22:55.461Z,32.58
2019-05-07T15:25:24.090Z,32.31
2019-05-07T15:27:52.918Z,31.97
2019-05-07T15:30:22.088Z,31.77
2019-05-07T15:32:52.127Z,31.74
2019-05-07T15:35:20.652Z,31.93
2019-05-07T15:37:49.188Z,31.82
2019-05-07T15:40:18.259Z,31.73
2019-05-07T15:42:46.672Z,31.99
2019-05-07T15:45:15.425Z,31.52
2019-05-07T15:47:45.892Z,31.12
2019-05-07T15:50:14.513Z,31.39
2019-05-07T15:52:57.652Z,31.29
2019-05-07T15:55:17.316Z,30.74
2019-05-07T15:57:45.878Z,30.68
2019-05-07T16:00:16.258Z,30.92
2019-05-07T16:02:46.342Z,31.54
2019-05-07T16:05:15.087Z,31.57
2019-05-07T16:07:44.965Z,31.56
2019-05-07T16:10:15.201Z,32.07
2019-05-07T16:12:43.919Z,31.94
2019-05-07T16:15:13.880Z,31.61
2019-05-07T16:17:44.221Z,31.46
2019-05-07T16:20:14.213Z,31.15
2019-05-07T16:22:44.387Z,30.87
2019-05-07T16:25:33.707Z,30.96
2019-05-07T16:28:04.885Z,31.13
2019-05-07T16:30:32.516Z,30.61
2019-05-07T16:33:02.088Z,30.59
2019-05-07T16:35:32.091Z,30.89
2019-05-07T16:38:00.801Z,30.98
2019-05-07T16:40:29.381Z,30.98
2019-05-07T16:42:57.801Z,30.92
2019-05-07T16:45:26.349Z,30.63
2019-05-07T16:47:54.953Z,30.55
2019-05-07T16:50:23.701Z,30.66
2019-05-07T16:52:52.540Z,31.15
2019-05-07T16:55:22.494Z,31.37
2019-05-07T16:58:04.740Z,31.13
2019-05-07T17:00:34.817Z,31.12
2019-05-07T17:03:04.869Z,31.44
2019-05-07T17:05:33.273Z,31.62
2019-05-07T17:08:03.420Z,31.91
2019-05-07T17:10:31.992Z,31.73
2019-05-07T17:13:00.345Z,31.87
2019-05-07T17:15:28.777Z,31.95
2019-05-07T17:18:02.492Z,31.85
2019-05-07T17:20:32.506Z,32.03
2019-05-07T17:23:02.766Z,31.98
2019-05-07T17:25:37.979Z,32.22
2019-05-07T17:28:08.107Z,32.66
2019-05-07T17:30:37.800Z,32.95
2019-05-07T17:33:06.849Z,33.19
2019-05-07T17:35:35.333Z,33.67
2019-05-07T17:38:07.217Z,33.63
2019-05-07T17:40:33.982Z,33.64
2019-05-07T17:43:03.203Z,33.90
2019-05-07T17:45:32.795Z,34.41
2019-05-07T17:48:03.145Z,34.69
2019-05-07T17:50:33.817Z,34.68
2019-05-07T17:53:02.223Z,34.89
2019-05-07T17:55:32.968Z,35.24
2019-05-07T17:58:01.995Z,35.51
2019-05-07T18:00:32.728Z,35.80
2019-05-07T18:03:08.095Z,36.04
2019-05-07T18:05:36.631Z,36.31
2019-05-07T18:08:05.112Z,36.41
2019-05-07T18:10:33.723Z,36.54
2019-05-07T18:13:02.132Z,36.56
2019-05-07T18:15:32.222Z,36.88
2019-05-07T18:18:05.220Z,37.13
2019-05-07T18:20:33.640Z,37.11
2019-05-07T18:23:02.631Z,37.09
2019-05-07T18:25:32.374Z,37.26
2019-05-07T18:28:01.797Z,37.43
2019-05-07T18:30:32.552Z,37.61
2019-05-07T18:33:14.610Z,37.66
2019-05-07T18:35:45.504Z,37.74
2019-05-07T18:38:13.909Z,37.80
2019-05-07T18:40:42.436Z,37.87
2019-05-07T18:43:12.242Z,37.97
2019-05-07T18:45:40.837Z,38.09
2019-05-07T18:48:09.285Z,38.33
2019-05-07T18:50:37.777Z,38.53
2019-05-07T18:53:06.247Z,38.67
2019-05-07T18:55:34.759Z,38.78
2019-05-07T18:58:03.250Z,38.95
2019-05-07T19:00:33.298Z,38.95
2019-05-07T19:03:03.451Z,38.97
2019-05-07T19:05:32.272Z,39.10
2019-05-07T19:08:07.037Z,39.40
2019-05-07T19:10:32.942Z,39.75
2019-05-07T19:13:01.341Z,39.99
2019-05-07T19:15:29.844Z,40.10
2019-05-07T19:17:58.388Z,40.32
2019-05-07T19:20:26.800Z,40.50
2019-05-07T19:22:56.745Z,40.63
2019-05-07T19:25:25.366Z,40.75
2019-05-07T19:27:53.934Z,40.93
2019-05-07T19:30:24.209Z,41.18
2019-05-07T19:32:52.957Z,41.19
2019-05-07T19:35:23.063Z,41.19
2019-05-07T19:37:52.866Z,41.33
2019-05-07T19:40:21.489Z,41.37
2019-05-07T19:42:52.128Z,41.47
2019-05-07T19:45:24.193Z,41.70
2019-05-07T19:47:52.310Z,41.84
2019-05-07T19:50:20.534Z,41.97
2019-05-07T19:52:48.955Z,42.17
2019-05-07T19:55:17.576Z,42.40
2019-05-07T19:57:47.697Z,42.73
2019-05-07T20:00:17.546Z,42.78
2019-05-07T20:02:48.021Z,42.90
2019-05-07T20:05:16.474Z,42.92
2019-05-07T20:07:44.903Z,42.91
2019-05-07T20:10:15.128Z,42.93
2019-05-07T20:12:43.554Z,43.06
2019-05-07T20:15:12.970Z,43.59
2019-05-07T20:17:41.983Z,43.86
2019-05-07T20:20:12.531Z,44.01
2019-05-07T20:22:42.664Z,44.32
2019-05-07T20:25:18.180Z,44.76
2019-05-07T20:27:41.903Z,45.17
2019-05-07T20:30:13.525Z,45.91
2019-05-07T20:32:42.807Z,46.45
2019-05-07T20:35:11.582Z,46.44
2019-05-07T20:37:41.927Z,46.71
2019-05-07T20:40:12.169Z,47.15
2019-05-07T20:42:42.681Z,47.64
2019-05-07T20:45:12.214Z,47.78
2019-05-07T20:47:42.122Z,47.95
2019-05-07T20:50:12.757Z,48.26
2019-05-07T20:52:41.813Z,48.56
2019-05-07T20:55:30.609Z,48.63
2019-05-07T20:57:54.341Z,48.98
2019-05-07T21:00:27.341Z,48.99
2019-05-07T21:03:13.339Z,49.08
2019-05-07T21:05:42.280Z,49.23
2019-05-07T21:08:11.895Z,49.35
2019-05-07T21:10:42.660Z,49.75
2019-05-07T21:13:26.760Z,50.19
2019-05-07T21:15:41.858Z,50.44
2019-05-07T21:18:12.371Z,50.34
2019-05-07T21:20:42.036Z,50.17
2019-05-07T21:23:12.230Z,50.31
2019-05-07T21:25:43.441Z,50.61
2019-05-07T21:28:12.182Z,51.03
2019-05-07T21:30:42.716Z,51.39
2019-05-07T21:33:11.965Z,51.62
2019-05-07T21:35:42.961Z,51.79
2019-05-07T21:38:12.640Z,51.83
2019-05-07T21:40:42.925Z,51.75
2019-05-07T21:43:14.221Z,51.88
2019-05-07T21:45:42.327Z,52.13
2019-05-07T21:48:13.539Z,52.34
2019-05-07T21:50:41.328Z,52.52
2019-05-07T21:53:17.297Z,52.57
2019-05-07T21:55:58.831Z,52.67
2019-05-07T21:58:36.953Z,52.68
2019-05-07T22:01:07.339Z,52.66
2019-05-07T22:03:36.001Z,52.75
2019-05-07T22:06:04.426Z,53.16
2019-05-07T22:08:32.892Z,53.46
2019-05-07T22:11:02.509Z,53.66
2019-05-07T22:13:32.922Z,53.80
2019-05-07T22:16:02.489Z,54.13
2019-05-07T22:18:31.997Z,54.43
2019-05-07T22:21:02.968Z,54.59
2019-05-07T22:23:32.524Z,54.66
2019-05-07T22:26:18.580Z,54.83
2019-05-07T22:28:32.119Z,55.08
2019-05-07T22:31:08.111Z,55.34
2019-05-07T22:33:38.271Z,55.55
2019-05-07T22:36:06.847Z,55.65
2019-05-07T22:38:35.253Z,55.73
2019-05-07T22:41:03.810Z,55.73
2019-05-07T22:43:32.289Z,55.80
2019-05-07T22:46:00.698Z,55.87
2019-05-07T22:48:29.150Z,55.95
2019-05-07T22:50:57.545Z,56.09
2019-05-07T22:53:25.956Z,56.23
2019-05-07T22:55:54.391Z,56.23
2019-05-07T22:58:24.431Z,56.19
2019-05-07T23:00:57.035Z,56.23
2019-05-07T23:03:26.175Z,56.12
2019-05-07T23:05:56.216Z,56.02
2019-05-07T23:08:24.685Z,56.03
2019-05-07T23:10:53.125Z,55.97
2019-05-07T23:13:22.640Z,56.13
2019-05-07T23:15:51.644Z,56.24
2019-05-07T23:18:22.713Z,56.25
2019-05-07T23:20:52.678Z,56.35
2019-05-07T23:23:21.730Z,56.50
2019-05-07T23:25:52.413Z,56.59
2019-05-07T23:28:22.808Z,56.79
2019-05-07T23:30:51.855Z,56.89
2019-05-07T23:33:22.492Z,56.95
2019-05-07T23:35:52.722Z,56.89
2019-05-07T23:38:22.551Z,56.79
2019-05-07T23:41:01.967Z,56.60
2019-05-07T23:43:29.965Z,56.71
2019-05-07T23:45:58.363Z,56.78
2019-05-07T23:48:27.007Z,56.83
2019-05-07T23:50:55.414Z,56.88
2019-05-07T23:53:23.815Z,57.11
2019-05-07T23:55:52.256Z,57.22
2019-05-07T23:58:22.956Z,57.29
